Time,TemperatureF,DewpointF,PressureIn,WindDirection,WindDirectionDegrees,WindSpeedMPH,WindSpeedGustMPH,Humidity,HourlyPrecipIn,Conditions,Clouds,dailyrainin,SoftwareType,DateUTC
2013-06-28 00:02:00,77.0,74.0,29.79,NW,326,0.0,0.0,90,0.00,,,0.00,,2013-06-28 04:02:00,
2013-06-28 00:12:00,77.0,74.0,29.79,NW,326,0.0,0.0,90,0.00,,,0.00,,2013-06-28 04:12:00,
2013-06-28 00:22:00,77.0,74.0,29.79,NW,326,0.0,0.0,90,0.00,,,0.00,,2013-06-28 04:22:00,
2013-06-28 00:33:00,77.0,74.0,29.79,NW,326,0.0,0.0,90,0.00,,,0.00,,2013-06-28 04:33:00,
2013-06-28 00:43:00,77.0,74.0,29.78,NW,325,0.0,0.0,91,0.00,,,0.00,,2013-06-28 04:43:00,
2013-06-28 01:01:00,77.0,74.0,29.79,NW,325,0.0,0.0,91,0.00,,,0.00,,2013-06-28 05:01:00,
2013-06-28 01:11:00,77.0,74.0,29.79,NW,325,0.0,0.0,91,0.00,,,0.00,,2013-06-28 05:11:00,
2013-06-28 01:43:00,76.0,73.0,29.79,NW,325,0.0,0.0,91,0.00,,,0.00,,2013-06-28 05:43:00,
2013-06-28 01:53:00,75.0,72.0,29.78,NW,325,0.0,0.0,91,0.00,,,0.00,,2013-06-28 05:53:00,
2013-06-28 02:02:00,75.0,72.0,29.78,NW,325,0.0,0.0,91,0.00,,,0.00,,2013-06-28 06:02:00,
2013-06-28 02:12:00,75.0,72.0,29.78,NW,325,0.0,0.0,91,0.00,,,0.00,,2013-06-28 06:12:00,
2013-06-28 02:52:00,74.0,71.0,29.78,NW,325,0.0,0.0,90,0.00,,,0.00,,2013-06-28 06:52:00,
2013-06-28 03:01:00,74.0,71.0,29.77,NW,325,0.0,0.0,90,0.00,,,0.00,,2013-06-28 07:01:00,
2013-06-28 03:11:00,74.0,71.0,29.77,NW,325,0.0,0.0,90,0.00,,,0.00,,2013-06-28 07:11:00,
2013-06-28 03:22:00,74.0,71.0,29.77,NW,325,0.0,0.0,90,0.00,,,0.00,,2013-06-28 07:22:00,
2013-06-28 03:33:00,74.0,71.0,29.77,NW,325,0.0,0.0,90,0.00,,,0.00,,2013-06-28 07:33:00,
2013-06-28 03:43:00,74.0,71.0,29.77,NW,325,0.0,0.0,90,0.00,,,0.00,,2013-06-28 07:43:00,
2013-06-28 03:52:00,74.0,71.0,29.76,NW,325,0.0,0.0,90,0.00,,,0.00,,2013-06-28 07:52:00,
2013-06-28 04:02:00,73.0,70.0,29.76,NW,325,0.0,0.0,91,0.00,,,0.00,,2013-06-28 08:02:00,
2013-06-28 04:11:00,73.0,70.0,29.76,NW,325,0.0,0.0,91,0.00,,,0.00,,2013-06-28 08:11:00,
2013-06-28 04:22:00,73.0,70.0,29.76,NW,325,0.0,0.0,91,0.00,,,0.00,,2013-06-28 08:22:00,
2013-06-28 04:33:00,73.0,70.0,29.76,NW,325,0.0,0.0,91,0.00,,,0.00,,2013-06-28 08:33:00,
2013-06-28 04:43:00,73.0,70.0,29.75,NW,325,0.0,0.0,91,0.00,,,0.00,,2013-06-28 08:43:00,
2013-06-28 04:52:00,73.0,71.0,29.75,NW,325,0.0,0.0,92,0.00,,,0.00,,2013-06-28 08:52:00,
2013-06-28 05:02:00,73.0,71.0,29.75,NW,325,0.0,0.0,92,0.00,,,0.00,,2013-06-28 09:02:00,
2013-06-28 05:33:00,73.0,71.0,29.75,NW,325,0.0,0.0,93,0.00,,,0.00,,2013-06-28 09:33:00,
2013-06-28 05:52:00,73.0,71.0,29.75,NW,325,0.0,0.0,93,0.00,,,0.00,,2013-06-28 09:52:00,
2013-06-28 06:22:00,73.0,71.0,29.75,NW,325,0.0,0.0,93,0.00,,,0.00,,2013-06-28 10:22:00,
2013-06-28 06:42:00,72.0,70.0,29.75,NW,325,0.0,0.0,94,0.00,,,0.00,,2013-06-28 10:42:00,
2013-06-28 06:52:00,72.0,70.0,29.75,NW,325,0.0,0.0,94,0.00,,,0.00,,2013-06-28 10:52:00,
2013-06-28 07:34:00,73.0,71.0,29.75,NW,325,0.0,0.0,94,0.00,,,0.00,,2013-06-28 11:34:00,
2013-06-28 07:43:00,74.0,72.0,29.75,NW,325,0.0,0.0,93,0.00,,,0.00,,2013-06-28 11:43:00,
2013-06-28 07:53:00,74.0,72.0,29.75,NW,325,0.0,0.0,93,0.00,,,0.00,,2013-06-28 11:53:00,
2013-06-28 08:12:00,75.0,72.0,29.75,NW,325,0.0,0.0,91,0.00,,,0.00,,2013-06-28 12:12:00,
2013-06-28 08:43:00,76.0,73.0,29.75,NNW,330,0.0,0.0,89,0.00,,,0.00,,2013-06-28 12:43:00,
2013-06-28 09:01:00,77.0,74.0,29.75,NNW,330,0.0,0.0,89,0.00,,,0.00,,2013-06-28 13:01:00,
2013-06-28 09:43:00,79.0,74.0,29.74,NNW,330,0.0,0.0,84,0.00,,,0.00,,2013-06-28 13:43:00,
2013-06-28 09:53:00,80.0,74.0,29.75,North,0,0.0,0.0,82,0.00,,,0.00,,2013-06-28 13:53:00,
2013-06-28 10:02:00,80.0,73.0,29.75,North,357,0.0,0.0,79,0.00,,,0.00,,2013-06-28 14:02:00,
2013-06-28 10:12:00,81.0,73.0,29.73,NNE,28,0.0,0.0,78,0.00,,,0.00,,2013-06-28 14:12:00,
2013-06-28 10:33:00,82.0,72.0,29.73,North,6,0.0,0.0,73,0.00,,,0.00,,2013-06-28 14:33:00,
2013-06-28 10:44:00,83.0,73.0,29.73,NNW,330,0.0,0.0,73,0.00,,,0.00,,2013-06-28 14:44:00,
2013-06-28 11:02:00,83.0,72.0,29.72,NNW,340,0.0,0.0,70,0.00,,,0.00,,2013-06-28 15:02:00,
2013-06-28 11:34:00,85.0,73.0,29.72,NNW,344,0.0,0.0,68,0.00,,,0.00,,2013-06-28 15:34:00,
2013-06-28 11:43:00,85.0,73.0,29.72,North,356,0.0,0.0,67,0.00,,,0.00,,2013-06-28 15:43:00,
2013-06-28 11:52:00,85.0,72.0,29.72,North,356,0.0,0.0,66,0.00,,,0.00,,2013-06-28 15:52:00,
2013-06-28 12:02:00,85.0,72.0,29.72,NW,311,0.0,0.0,65,0.00,,,0.00,,2013-06-28 16:02:00,
2013-06-28 12:25:00,86.0,70.0,29.72,North,356,0.0,1.0,60,0.00,,,0.00,,2013-06-28 16:25:00,
2013-06-28 12:44:00,86.0,69.0,29.72,South,176,0.0,0.0,57,0.00,,,0.00,,2013-06-28 16:44:00,
2013-06-28 12:53:00,86.0,69.0,29.72,South,176,0.0,0.0,57,0.00,,,0.00,,2013-06-28 16:53:00,
2013-06-28 13:02:00,86.0,69.0,29.72,North,359,0.0,0.0,57,0.00,,,0.00,,2013-06-28 17:02:00,
2013-06-28 13:44:00,88.0,69.0,29.71,North,0,0.0,0.0,54,0.00,,,0.00,,2013-06-28 17:44:00,
2013-06-28 14:02:00,88.0,71.0,29.70,East,97,0.0,0.0,57,0.00,,,0.00,,2013-06-28 18:02:00,
2013-06-28 14:43:00,87.0,71.0,29.68,ENE,61,0.0,0.0,60,0.00,,,0.00,,2013-06-28 18:43:00,
2013-06-28 14:52:00,88.0,73.0,29.66,SE,133,0.0,0.0,62,0.00,,,0.00,,2013-06-28 18:52:00,
2013-06-28 15:01:00,88.0,73.0,29.66,NNE,18,0.0,0.0,62,0.00,,,0.00,,2013-06-28 19:01:00,
2013-06-28 15:33:00,88.0,71.0,29.64,NNW,347,0.0,0.0,58,0.00,,,0.00,,2013-06-28 19:33:00,
2013-06-28 15:43:00,88.0,70.0,29.64,West,271,0.0,0.0,56,0.00,,,0.00,,2013-06-28 19:43:00,
2013-06-28 15:53:00,89.0,71.0,29.64,NW,325,0.0,0.0,56,0.00,,,0.00,,2013-06-28 19:53:00,
2013-06-28 16:02:00,89.0,71.0,29.64,NW,325,0.0,0.0,56,0.00,,,0.00,,2013-06-28 20:02:00,
2013-06-28 16:43:00,89.0,71.0,29.61,East,82,0.0,0.0,56,0.00,,,0.00,,2013-06-28 20:43:00,
2013-06-28 16:52:00,90.0,72.0,29.60,SSE,147,0.0,0.0,55,0.00,,,0.00,,2013-06-28 20:52:00,
2013-06-28 17:02:00,90.0,72.0,29.60,SSE,147,0.0,0.0,55,0.00,,,0.00,,2013-06-28 21:02:00,
2013-06-28 17:34:00,88.0,72.0,29.60,North,353,0.0,2.0,59,0.00,,,0.00,,2013-06-28 21:34:00,
2013-06-28 17:43:00,85.0,72.0,29.59,NNW,339,0.0,0.0,66,0.00,,,0.00,,2013-06-28 21:43:00,
2013-06-28 17:53:00,85.0,72.0,29.59,NNW,339,0.0,0.0,66,0.00,,,0.00,,2013-06-28 21:53:00,
2013-06-28 18:34:00,75.0,66.0,29.65,North,0,0.0,6.0,74,0.00,,,0.18,,2013-06-28 22:34:00,
2013-06-28 18:52:00,76.0,70.0,29.63,NNW,346,1.0,10.0,81,0.00,,,0.18,,2013-06-28 22:52:00,
2013-06-28 19:02:00,77.0,71.0,29.62,NNW,346,0.0,0.0,81,0.00,,,0.18,,2013-06-28 23:02:00,
2013-06-28 19:11:00,77.0,71.0,29.62,North,0,0.0,0.0,81,0.00,,,0.18,,2013-06-28 23:11:00,
2013-06-28 19:34:00,76.0,70.0,29.63,NNE,25,0.0,2.0,81,0.00,,,0.18,,2013-06-28 23:34:00,
2013-06-28 19:43:00,77.0,73.0,29.64,NNE,25,0.0,1.0,87,0.00,,,0.18,,2013-06-28 23:43:00,
2013-06-28 19:53:00,77.0,73.0,29.64,SE,144,1.0,6.0,87,0.00,,,0.18,,2013-06-28 23:53:00,
2013-06-28 20:02:00,77.0,72.0,29.64,SE,144,0.0,0.0,86,0.00,,,0.18,,2013-06-29 00:02:00,
2013-06-28 20:11:00,77.0,73.0,29.65,SE,144,0.0,0.0,87,0.00,,,0.18,,2013-06-29 00:11:00,
2013-06-28 20:23:00,77.0,73.0,29.65,SE,144,0.0,0.0,87,0.00,,,0.18,,2013-06-29 00:23:00,
2013-06-28 20:33:00,77.0,73.0,29.65,SE,144,0.0,0.0,88,0.00,,,0.18,,2013-06-29 00:33:00,
2013-06-28 20:42:00,77.0,73.0,29.65,SE,144,0.0,0.0,88,0.00,,,0.18,,2013-06-29 00:42:00,
2013-06-28 21:01:00,77.0,73.0,29.65,SE,144,0.0,5.0,88,0.00,,,0.18,,2013-06-29 01:01:00,
2013-06-28 21:11:00,77.0,73.0,29.65,SE,144,0.0,5.0,88,0.00,,,0.18,,2013-06-29 01:11:00,
2013-06-28 21:22:00,77.0,73.0,29.65,SE,144,0.0,0.0,88,0.00,,,0.18,,2013-06-29 01:22:00,
2013-06-28 21:32:00,77.0,73.0,29.65,SE,144,0.0,0.0,88,0.00,,,0.18,,2013-06-29 01:32:00,
2013-06-28 21:42:00,77.0,73.0,29.65,SE,144,0.0,2.0,88,0.00,,,0.18,,2013-06-29 01:42:00,
2013-06-28 21:52:00,77.0,73.0,29.65,SE,144,0.0,2.0,88,0.00,,,0.18,,2013-06-29 01:52:00,
2013-06-28 22:01:00,77.0,73.0,29.65,SE,144,0.0,2.0,88,0.00,,,0.18,,2013-06-29 02:01:00,
2013-06-28 22:11:00,77.0,73.0,29.65,SE,144,0.0,2.0,88,0.00,,,0.18,,2013-06-29 02:11:00,
2013-06-28 22:21:00,76.0,72.0,29.65,SSE,154,0.0,0.0,88,0.00,,,0.18,,2013-06-29 02:21:00,
2013-06-28 22:31:00,75.0,72.0,29.65,North,0,0.0,0.0,89,0.00,,,0.18,,2013-06-29 02:31:00,
2013-06-28 22:41:00,75.0,72.0,29.65,North,0,0.0,0.0,89,0.00,,,0.18,,2013-06-29 02:41:00,
2013-06-28 22:51:00,75.0,72.0,29.65,North,0,0.0,0.0,89,0.00,,,0.18,,2013-06-29 02:51:00,
2013-06-28 23:01:00,75.0,72.0,29.65,North,0,0.0,0.0,89,0.00,,,0.18,,2013-06-29 03:01:00,
2013-06-28 23:11:00,75.0,72.0,29.65,North,0,0.0,0.0,89,0.00,,,0.18,,2013-06-29 03:11:00,
2013-06-28 23:51:00,72.0,69.0,29.65,NW,319,0.0,0.0,89,0.00,,,0.19,,2013-06-29 03:51:00,